sensor_id;sensor_type;location;lat;lon;timestamp;P1;durP1;ratioP1;P2;durP2;ratioP2
3589;SDS011;1809;48.470;9.226;2023-09-12T00:00:46;15.10;;;10.30;;
3589;SDS011;1809;48.470;9.226;2023-09-12T00:03:12;18.73;;;10.53;;
3589;SDS011;1809;48.470;9.226;2023-09-12T00:05:38;20.67;;;9.90;;
3589;SDS011;1809;48.470;9.226;2023-09-12T00:08:03;14.90;;;9.60;;
3589;SDS011;1809;48.470;9.226;2023-09-12T00:10:29;20.20;;;10.10;;
3589;SDS011;1809;48.470;9.226;2023-09-12T00:12:55;19.10;;;10.23;;
3589;SDS011;1809;48.470;9.226;2023-09-12T00:15:20;10.87;;;9.73;;
3589;SDS011;1809;48.470;9.226;2023-09-12T00:17:46;16.13;;;9.57;;
3589;SDS011;1809;48.470;9.226;2023-09-12T00:20:13;15.13;;;10.20;;
3589;SDS011;1809;48.470;9.226;2023-09-12T00:22:39;15.73;;;9.57;;
3589;SDS011;1809;48.470;9.226;2023-09-12T00:25:04;18.60;;;10.10;;
3589;SDS011;1809;48.470;9.226;2023-09-12T00:27:30;19.60;;;10.50;;
3589;SDS011;1809;48.470;9.226;2023-09-12T00:29:55;16.47;;;10.70;;
3589;SDS011;1809;48.470;9.226;2023-09-12T00:32:21;13.60;;;10.00;;
3589;SDS011;1809;48.470;9.226;2023-09-12T00:34:46;11.63;;;10.53;;
3589;SDS011;1809;48.470;9.226;2023-09-12T00:37:11;18.97;;;9.47;;
3589;SDS011;1809;48.470;9.226;2023-09-12T00:39:37;13.73;;;10.07;;
3589;SDS011;1809;48.470;9.226;2023-09-12T00:42:02;12.90;;;10.00;;
3589;SDS011;1809;48.470;9.226;2023-09-12T00:44:28;13.93;;;10.13;;
3589;SDS011;1809;48.470;9.226;2023-09-12T00:46:53;19.17;;;10.40;;
3589;SDS011;1809;48.470;9.226;2023-09-12T00:49:19;16.57;;;10.57;;
3589;SDS011;1809;48.470;9.226;2023-09-12T00:51:47;11.50;;;9.10;;
3589;SDS011;1809;48.470;9.226;2023-09-12T00:54:15;12.53;;;10.00;;
3589;SDS011;1809;48.470;9.226;2023-09-12T00:56:41;12.20;;;9.20;;
3589;SDS011;1809;48.470;9.226;2023-09-12T00:59:07;15.63;;;10.50;;
3589;SDS011;1809;48.470;9.226;2023-09-12T01:01:33;19.53;;;9.40;;
3589;SDS011;1809;48.470;9.226;2023-09-12T01:03:59;19.03;;;10.70;;
3589;SDS011;1809;48.470;9.226;2023-09-12T01:06:26;17.53;;;9.40;;
3589;SDS011;1809;48.470;9.226;2023-09-12T01:08:54;26.63;;;11.03;;
3589;SDS011;1809;48.470;9.226;2023-09-12T01:11:20;20.53;;;10.80;;
3589;SDS011;1809;48.470;9.226;2023-09-12T01:13:46;22.60;;;11.10;;
3589;SDS011;1809;48.470;9.226;2023-09-12T01:16:11;18.60;;;10.43;;
3589;SDS011;1809;48.470;9.226;2023-09-12T01:18:36;18.83;;;10.80;;
3589;SDS011;1809;48.470;9.226;2023-09-12T01:26:22;15.33;;;9.57;;
3589;SDS011;1809;48.470;9.226;2023-09-12T01:28:49;19.93;;;9.80;;
3589;SDS011;1809;48.470;9.226;2023-09-12T01:31:17;19.73;;;11.17;;
3589;SDS011;1809;48.470;9.226;2023-09-12T01:33:43;14.37;;;10.10;;
3589;SDS011;1809;48.470;9.226;2023-09-12T01:36:09;23.27;;;9.03;;
3589;SDS011;1809;48.470;9.226;2023-09-12T01:38:35;14.50;;;10.53;;
3589;SDS011;1809;48.470;9.226;2023-09-12T01:41:00;16.93;;;11.00;;
3589;SDS011;1809;48.470;9.226;2023-09-12T01:43:26;13.97;;;9.93;;
3589;SDS011;1809;48.470;9.226;2023-09-12T01:45:53;13.80;;;10.50;;
3589;SDS011;1809;48.470;9.226;2023-09-12T01:48:21;17.93;;;10.67;;
3589;SDS011;1809;48.470;9.226;2023-09-12T01:50:49;17.33;;;11.17;;
3589;SDS011;1809;48.470;9.226;2023-09-12T01:53:16;14.97;;;10.67;;
3589;SDS011;1809;48.470;9.226;2023-09-12T01:55:42;16.87;;;10.50;;
3589;SDS011;1809;48.470;9.226;2023-09-12T01:58:09;22.27;;;11.80;;
3589;SDS011;1809;48.470;9.226;2023-09-12T02:00:35;23.97;;;10.63;;
3589;SDS011;1809;48.470;9.226;2023-09-12T02:03:01;16.87;;;10.27;;
3589;SDS011;1809;48.470;9.226;2023-09-12T02:05:28;17.83;;;11.17;;
3589;SDS011;1809;48.470;9.226;2023-09-12T02:07:53;23.57;;;11.27;;
3589;SDS011;1809;48.470;9.226;2023-09-12T02:10:18;15.23;;;9.70;;
3589;SDS011;1809;48.470;9.226;2023-09-12T02:12:44;12.40;;;9.93;;
3589;SDS011;1809;48.470;9.226;2023-09-12T02:15:09;20.10;;;10.50;;
3589;SDS011;1809;48.470;9.226;2023-09-12T02:17:35;16.90;;;10.43;;
3589;SDS011;1809;48.470;9.226;2023-09-12T02:20:00;13.50;;;10.10;;
3589;SDS011;1809;48.470;9.226;2023-09-12T02:22:25;17.13;;;10.77;;
3589;SDS011;1809;48.470;9.226;2023-09-12T02:24:51;13.73;;;10.67;;
3589;SDS011;1809;48.470;9.226;2023-09-12T02:27:16;16.53;;;9.50;;
3589;SDS011;1809;48.470;9.226;2023-09-12T02:29:42;26.37;;;10.93;;
3589;SDS011;1809;48.470;9.226;2023-09-12T02:32:08;17.23;;;11.20;;
3589;SDS011;1809;48.470;9.226;2023-09-12T02:34:34;16.83;;;10.63;;
3589;SDS011;1809;48.470;9.226;2023-09-12T02:37:00;14.70;;;10.33;;
3589;SDS011;1809;48.470;9.226;2023-09-12T02:39:25;15.80;;;10.30;;
3589;SDS011;1809;48.470;9.226;2023-09-12T02:41:51;16.07;;;10.10;;
3589;SDS011;1809;48.470;9.226;2023-09-12T02:44:16;18.97;;;10.97;;
3589;SDS011;1809;48.470;9.226;2023-09-12T02:46:42;17.50;;;10.53;;
3589;SDS011;1809;48.470;9.226;2023-09-12T02:49:07;19.60;;;11.50;;
3589;SDS011;1809;48.470;9.226;2023-09-12T02:51:33;22.87;;;12.20;;
3589;SDS011;1809;48.470;9.226;2023-09-12T02:53:58;20.17;;;10.90;;
3589;SDS011;1809;48.470;9.226;2023-09-12T02:56:23;18.67;;;10.93;;
3589;SDS011;1809;48.470;9.226;2023-09-12T02:58:49;21.33;;;11.70;;
3589;SDS011;1809;48.470;9.226;2023-09-12T03:01:17;20.60;;;11.03;;
3589;SDS011;1809;48.470;9.226;2023-09-12T03:03:47;17.87;;;11.70;;
3589;SDS011;1809;48.470;9.226;2023-09-12T03:06:13;19.10;;;11.50;;
3589;SDS011;1809;48.470;9.226;2023-09-12T03:08:39;23.27;;;11.73;;
3589;SDS011;1809;48.470;9.226;2023-09-12T03:11:05;19.00;;;11.37;;
3589;SDS011;1809;48.470;9.226;2023-09-12T03:13:32;24.93;;;11.30;;
3589;SDS011;1809;48.470;9.226;2023-09-12T03:15:58;22.37;;;10.73;;
3589;SDS011;1809;48.470;9.226;2023-09-12T03:18:23;14.93;;;11.70;;
3589;SDS011;1809;48.470;9.226;2023-09-12T03:20:49;24.00;;;12.37;;
3589;SDS011;1809;48.470;9.226;2023-09-12T03:23:14;28.63;;;12.53;;
3589;SDS011;1809;48.470;9.226;2023-09-12T03:25:39;15.30;;;11.70;;
3589;SDS011;1809;48.470;9.226;2023-09-12T03:28:05;23.20;;;13.10;;
3589;SDS011;1809;48.470;9.226;2023-09-12T03:30:36;19.50;;;11.03;;
3589;SDS011;1809;48.470;9.226;2023-09-12T03:33:02;28.30;;;11.43;;
3589;SDS011;1809;48.470;9.226;2023-09-12T03:35:29;20.37;;;11.97;;
3589;SDS011;1809;48.470;9.226;2023-09-12T03:37:54;22.50;;;11.67;;
3589;SDS011;1809;48.470;9.226;2023-09-12T03:40:20;16.03;;;11.53;;
3589;SDS011;1809;48.470;9.226;2023-09-12T03:42:45;16.60;;;12.00;;
3589;SDS011;1809;48.470;9.226;2023-09-12T03:45:11;17.43;;;11.60;;
3589;SDS011;1809;48.470;9.226;2023-09-12T03:47:36;20.83;;;11.53;;
3589;SDS011;1809;48.470;9.226;2023-09-12T03:50:02;21.13;;;9.90;;
3589;SDS011;1809;48.470;9.226;2023-09-12T03:52:27;16.90;;;10.87;;
3589;SDS011;1809;48.470;9.226;2023-09-12T03:54:53;17.13;;;13.20;;
3589;SDS011;1809;48.470;9.226;2023-09-12T03:57:18;17.73;;;13.10;;
3589;SDS011;1809;48.470;9.226;2023-09-12T03:59:44;17.93;;;11.67;;
3589;SDS011;1809;48.470;9.226;2023-09-12T04:02:11;15.30;;;12.00;;
3589;SDS011;1809;48.470;9.226;2023-09-12T04:04:37;14.73;;;11.57;;
3589;SDS011;1809;48.470;9.226;2023-09-12T04:07:02;22.03;;;11.60;;
3589;SDS011;1809;48.470;9.226;2023-09-12T04:09:28;16.47;;;12.03;;
3589;SDS011;1809;48.470;9.226;2023-09-12T04:11:53;12.73;;;10.47;;
3589;SDS011;1809;48.470;9.226;2023-09-12T04:14:20;24.13;;;11.97;;
3589;SDS011;1809;48.470;9.226;2023-09-12T04:16:46;20.83;;;12.70;;
3589;SDS011;1809;48.470;9.226;2023-09-12T04:19:11;15.87;;;11.53;;
3589;SDS011;1809;48.470;9.226;2023-09-12T04:21:36;20.83;;;12.70;;
3589;SDS011;1809;48.470;9.226;2023-09-12T04:24:02;27.20;;;12.30;;
3589;SDS011;1809;48.470;9.226;2023-09-12T04:26:27;16.20;;;11.70;;
3589;SDS011;1809;48.470;9.226;2023-09-12T04:28:53;16.87;;;11.50;;
3589;SDS011;1809;48.470;9.226;2023-09-12T04:31:18;19.30;;;12.53;;
3589;SDS011;1809;48.470;9.226;2023-09-12T04:33:43;24.47;;;12.90;;
3589;SDS011;1809;48.470;9.226;2023-09-12T04:36:08;18.43;;;12.03;;
3589;SDS011;1809;48.470;9.226;2023-09-12T04:38:34;16.97;;;13.03;;
3589;SDS011;1809;48.470;9.226;2023-09-12T04:41:02;23.00;;;13.67;;
3589;SDS011;1809;48.470;9.226;2023-09-12T04:43:33;19.77;;;12.80;;
3589;SDS011;1809;48.470;9.226;2023-09-12T04:45:58;15.30;;;12.73;;
3589;SDS011;1809;48.470;9.226;2023-09-12T04:48:24;20.27;;;12.60;;
3589;SDS011;1809;48.470;9.226;2023-09-12T04:50:49;20.43;;;12.77;;
3589;SDS011;1809;48.470;9.226;2023-09-12T04:53:14;17.43;;;12.33;;
3589;SDS011;1809;48.470;9.226;2023-09-12T04:55:40;18.97;;;13.10;;
3589;SDS011;1809;48.470;9.226;2023-09-12T04:58:06;28.20;;;12.70;;
3589;SDS011;1809;48.470;9.226;2023-09-12T05:00:32;21.93;;;12.47;;
3589;SDS011;1809;48.470;9.226;2023-09-12T05:02:58;17.40;;;11.23;;
3589;SDS011;1809;48.470;9.226;2023-09-12T05:05:23;23.17;;;13.17;;
3589;SDS011;1809;48.470;9.226;2023-09-12T05:07:49;21.20;;;12.70;;
3589;SDS011;1809;48.470;9.226;2023-09-12T05:10:16;17.40;;;13.47;;
3589;SDS011;1809;48.470;9.226;2023-09-12T05:12:41;23.07;;;13.80;;
3589;SDS011;1809;48.470;9.226;2023-09-12T05:15:07;20.47;;;13.50;;
3589;SDS011;1809;48.470;9.226;2023-09-12T05:17:32;23.40;;;14.60;;
3589;SDS011;1809;48.470;9.226;2023-09-12T05:19:57;19.40;;;13.83;;
3589;SDS011;1809;48.470;9.226;2023-09-12T05:22:23;32.20;;;14.40;;
3589;SDS011;1809;48.470;9.226;2023-09-12T05:24:48;25.83;;;15.20;;
3589;SDS011;1809;48.470;9.226;2023-09-12T05:27:14;22.10;;;15.33;;
3589;SDS011;1809;48.470;9.226;2023-09-12T05:29:40;20.73;;;13.43;;
3589;SDS011;1809;48.470;9.226;2023-09-12T05:32:05;18.50;;;13.00;;
3589;SDS011;1809;48.470;9.226;2023-09-12T05:34:31;16.03;;;14.20;;
3589;SDS011;1809;48.470;9.226;2023-09-12T05:36:56;22.23;;;15.67;;
3589;SDS011;1809;48.470;9.226;2023-09-12T05:39:22;21.07;;;15.77;;
3589;SDS011;1809;48.470;9.226;2023-09-12T05:41:48;22.00;;;16.03;;
3589;SDS011;1809;48.470;9.226;2023-09-12T05:44:14;22.53;;;14.30;;
3589;SDS011;1809;48.470;9.226;2023-09-12T05:46:44;16.77;;;11.60;;
3589;SDS011;1809;48.470;9.226;2023-09-12T05:49:11;19.67;;;12.73;;
3589;SDS011;1809;48.470;9.226;2023-09-12T05:51:36;25.30;;;13.60;;
3589;SDS011;1809;48.470;9.226;2023-09-12T05:54:01;29.70;;;12.77;;
3589;SDS011;1809;48.470;9.226;2023-09-12T05:56:28;25.33;;;13.13;;
3589;SDS011;1809;48.470;9.226;2023-09-12T05:58:53;22.47;;;11.70;;
3589;SDS011;1809;48.470;9.226;2023-09-12T06:01:19;32.80;;;12.40;;
3589;SDS011;1809;48.470;9.226;2023-09-12T06:03:44;18.03;;;12.43;;
3589;SDS011;1809;48.470;9.226;2023-09-12T06:06:09;20.03;;;11.53;;
3589;SDS011;1809;48.470;9.226;2023-09-12T06:08:35;31.80;;;12.57;;
3589;SDS011;1809;48.470;9.226;2023-09-12T06:11:00;17.83;;;9.87;;
3589;SDS011;1809;48.470;9.226;2023-09-12T06:13:25;36.27;;;12.33;;
3589;SDS011;1809;48.470;9.226;2023-09-12T06:15:50;28.00;;;10.70;;
3589;SDS011;1809;48.470;9.226;2023-09-12T06:18:16;22.63;;;12.10;;
3589;SDS011;1809;48.470;9.226;2023-09-12T06:20:41;21.83;;;10.90;;
3589;SDS011;1809;48.470;9.226;2023-09-12T06:23:07;21.30;;;11.80;;
3589;SDS011;1809;48.470;9.226;2023-09-12T06:25:32;21.93;;;12.17;;
3589;SDS011;1809;48.470;9.226;2023-09-12T06:27:59;15.63;;;10.80;;
3589;SDS011;1809;48.470;9.226;2023-09-12T06:30:24;14.40;;;10.83;;
3589;SDS011;1809;48.470;9.226;2023-09-12T06:32:49;18.83;;;12.13;;
3589;SDS011;1809;48.470;9.226;2023-09-12T06:35:15;16.70;;;12.50;;
3589;SDS011;1809;48.470;9.226;2023-09-12T06:37:40;20.13;;;11.90;;
3589;SDS011;1809;48.470;9.226;2023-09-12T06:40:06;14.27;;;11.50;;
3589;SDS011;1809;48.470;9.226;2023-09-12T06:42:32;22.30;;;12.17;;
3589;SDS011;1809;48.470;9.226;2023-09-12T06:44:57;21.43;;;11.60;;
3589;SDS011;1809;48.470;9.226;2023-09-12T06:47:23;16.27;;;11.03;;
3589;SDS011;1809;48.470;9.226;2023-09-12T06:49:48;14.57;;;12.10;;
3589;SDS011;1809;48.470;9.226;2023-09-12T06:52:13;20.90;;;11.00;;
3589;SDS011;1809;48.470;9.226;2023-09-12T06:54:39;17.07;;;11.40;;
3589;SDS011;1809;48.470;9.226;2023-09-12T06:57:04;26.17;;;11.10;;
3589;SDS011;1809;48.470;9.226;2023-09-12T06:59:29;20.83;;;12.93;;
3589;SDS011;1809;48.470;9.226;2023-09-12T07:01:55;17.10;;;11.30;;
3589;SDS011;1809;48.470;9.226;2023-09-12T07:04:21;28.20;;;12.27;;
3589;SDS011;1809;48.470;9.226;2023-09-12T07:06:46;17.67;;;12.27;;
3589;SDS011;1809;48.470;9.226;2023-09-12T07:09:12;18.00;;;12.27;;
3589;SDS011;1809;48.470;9.226;2023-09-12T07:11:39;17.63;;;11.07;;
3589;SDS011;1809;48.470;9.226;2023-09-12T07:14:06;16.37;;;12.30;;
3589;SDS011;1809;48.470;9.226;2023-09-12T07:16:31;22.83;;;13.63;;
3589;SDS011;1809;48.470;9.226;2023-09-12T07:18:57;18.03;;;11.80;;
3589;SDS011;1809;48.470;9.226;2023-09-12T07:21:22;15.97;;;11.70;;
3589;SDS011;1809;48.470;9.226;2023-09-12T07:23:48;24.40;;;12.70;;
3589;SDS011;1809;48.470;9.226;2023-09-12T07:26:13;18.53;;;11.13;;
3589;SDS011;1809;48.470;9.226;2023-09-12T07:28:39;25.00;;;10.93;;
3589;SDS011;1809;48.470;9.226;2023-09-12T07:31:05;17.20;;;12.60;;
3589;SDS011;1809;48.470;9.226;2023-09-12T07:33:31;15.00;;;12.23;;
3589;SDS011;1809;48.470;9.226;2023-09-12T07:35:56;15.27;;;12.00;;
3589;SDS011;1809;48.470;9.226;2023-09-12T07:38:22;15.00;;;12.07;;
3589;SDS011;1809;48.470;9.226;2023-09-12T07:40:47;25.23;;;12.30;;
3589;SDS011;1809;48.470;9.226;2023-09-12T07:43:13;28.20;;;13.10;;
3589;SDS011;1809;48.470;9.226;2023-09-12T07:45:38;17.23;;;12.13;;
3589;SDS011;1809;48.470;9.226;2023-09-12T07:48:07;18.07;;;10.80;;
3589;SDS011;1809;48.470;9.226;2023-09-12T07:50:34;19.20;;;11.97;;
3589;SDS011;1809;48.470;9.226;2023-09-12T07:53:00;20.70;;;11.10;;
3589;SDS011;1809;48.470;9.226;2023-09-12T07:55:25;37.93;;;12.80;;
3589;SDS011;1809;48.470;9.226;2023-09-12T07:57:50;14.13;;;11.03;;
3589;SDS011;1809;48.470;9.226;2023-09-12T08:00:16;13.73;;;10.33;;
3589;SDS011;1809;48.470;9.226;2023-09-12T08:02:42;18.47;;;11.60;;
3589;SDS011;1809;48.470;9.226;2023-09-12T08:05:07;17.70;;;12.10;;
3589;SDS011;1809;48.470;9.226;2023-09-12T08:07:34;14.70;;;11.50;;
3589;SDS011;1809;48.470;9.226;2023-09-12T08:09:59;17.67;;;12.10;;
3589;SDS011;1809;48.470;9.226;2023-09-12T08:12:25;12.77;;;11.47;;
3589;SDS011;1809;48.470;9.226;2023-09-12T08:14:52;13.20;;;11.93;;
3589;SDS011;1809;48.470;9.226;2023-09-12T08:17:21;20.10;;;12.03;;
3589;SDS011;1809;48.470;9.226;2023-09-12T08:19:47;19.83;;;12.33;;
3589;SDS011;1809;48.470;9.226;2023-09-12T08:22:12;17.63;;;11.20;;
3589;SDS011;1809;48.470;9.226;2023-09-12T08:24:38;12.50;;;10.83;;
3589;SDS011;1809;48.470;9.226;2023-09-12T08:27:06;20.43;;;11.23;;
3589;SDS011;1809;48.470;9.226;2023-09-12T08:29:34;13.87;;;11.43;;
3589;SDS011;1809;48.470;9.226;2023-09-12T08:32:00;15.43;;;12.13;;
3589;SDS011;1809;48.470;9.226;2023-09-12T08:34:26;15.87;;;12.00;;
3589;SDS011;1809;48.470;9.226;2023-09-12T08:36:51;17.07;;;12.93;;
3589;SDS011;1809;48.470;9.226;2023-09-12T08:39:18;13.50;;;12.20;;
3589;SDS011;1809;48.470;9.226;2023-09-12T08:41:49;17.90;;;12.00;;
3589;SDS011;1809;48.470;9.226;2023-09-12T08:44:14;13.60;;;11.90;;
3589;SDS011;1809;48.470;9.226;2023-09-12T08:46:41;15.13;;;11.10;;
3589;SDS011;1809;48.470;9.226;2023-09-12T08:49:07;13.40;;;11.43;;
3589;SDS011;1809;48.470;9.226;2023-09-12T08:51:34;18.73;;;11.77;;
3589;SDS011;1809;48.470;9.226;2023-09-12T08:54:02;14.37;;;12.87;;
3589;SDS011;1809;48.470;9.226;2023-09-12T08:56:29;19.20;;;14.13;;
3589;SDS011;1809;48.470;9.226;2023-09-12T08:58:57;21.83;;;12.27;;
3589;SDS011;1809;48.470;9.226;2023-09-12T09:01:23;14.90;;;11.90;;
3589;SDS011;1809;48.470;9.226;2023-09-12T09:03:52;15.17;;;12.50;;
3589;SDS011;1809;48.470;9.226;2023-09-12T09:06:18;20.73;;;11.30;;
3589;SDS011;1809;48.470;9.226;2023-09-12T09:08:45;14.53;;;13.03;;
3589;SDS011;1809;48.470;9.226;2023-09-12T09:11:11;18.33;;;12.00;;
3589;SDS011;1809;48.470;9.226;2023-09-12T09:13:36;12.17;;;10.50;;
3589;SDS011;1809;48.470;9.226;2023-09-12T09:16:18;12.83;;;11.50;;
3589;SDS011;1809;48.470;9.226;2023-09-12T09:18:49;16.33;;;11.60;;
3589;SDS011;1809;48.470;9.226;2023-09-12T09:21:20;17.93;;;11.27;;
3589;SDS011;1809;48.470;9.226;2023-09-12T09:23:49;15.33;;;11.13;;
3589;SDS011;1809;48.470;9.226;2023-09-12T09:26:15;12.53;;;11.23;;
3589;SDS011;1809;48.470;9.226;2023-09-12T09:28:40;12.00;;;10.80;;
3589;SDS011;1809;48.470;9.226;2023-09-12T09:31:09;13.10;;;10.40;;
3589;SDS011;1809;48.470;9.226;2023-09-12T09:33:36;15.40;;;12.37;;
3589;SDS011;1809;48.470;9.226;2023-09-12T09:36:06;14.97;;;12.10;;
3589;SDS011;1809;48.470;9.226;2023-09-12T09:38:33;11.80;;;10.60;;
3589;SDS011;1809;48.470;9.226;2023-09-12T09:41:00;12.80;;;11.07;;
3589;SDS011;1809;48.470;9.226;2023-09-12T09:43:28;12.63;;;11.30;;
3589;SDS011;1809;48.470;9.226;2023-09-12T09:45:56;12.00;;;10.73;;
3589;SDS011;1809;48.470;9.226;2023-09-12T09:48:23;11.83;;;10.60;;
3589;SDS011;1809;48.470;9.226;2023-09-12T09:50:52;11.90;;;10.73;;
3589;SDS011;1809;48.470;9.226;2023-09-12T09:53:21;12.23;;;10.87;;
3589;SDS011;1809;48.470;9.226;2023-09-12T09:56:18;12.87;;;10.97;;
3589;SDS011;1809;48.470;9.226;2023-09-12T10:01:12;13.23;;;9.83;;
3589;SDS011;1809;48.470;9.226;2023-09-12T10:03:41;10.70;;;9.67;;
3589;SDS011;1809;48.470;9.226;2023-09-12T10:06:08;13.53;;;10.00;;
3589;SDS011;1809;48.470;9.226;2023-09-12T10:08:35;13.90;;;11.63;;
3589;SDS011;1809;48.470;9.226;2023-09-12T10:11:01;17.37;;;10.90;;
3589;SDS011;1809;48.470;9.226;2023-09-12T10:13:27;11.53;;;9.63;;
3589;SDS011;1809;48.470;9.226;2023-09-12T10:15:58;11.00;;;9.73;;
3589;SDS011;1809;48.470;9.226;2023-09-12T10:18:25;10.97;;;9.93;;
3589;SDS011;1809;48.470;9.226;2023-09-12T10:20:55;13.77;;;10.93;;
3589;SDS011;1809;48.470;9.226;2023-09-12T10:23:39;12.57;;;11.33;;
3589;SDS011;1809;48.470;9.226;2023-09-12T10:26:12;11.90;;;10.87;;
3589;SDS011;1809;48.470;9.226;2023-09-12T10:28:42;11.47;;;9.97;;
3589;SDS011;1809;48.470;9.226;2023-09-12T10:31:08;15.90;;;11.60;;
3589;SDS011;1809;48.470;9.226;2023-09-12T10:33:37;11.73;;;10.57;;
3589;SDS011;1809;48.470;9.226;2023-09-12T10:36:03;10.50;;;9.40;;
3589;SDS011;1809;48.470;9.226;2023-09-12T10:38:30;11.13;;;9.90;;
3589;SDS011;1809;48.470;9.226;2023-09-12T10:40:58;10.47;;;9.60;;
3589;SDS011;1809;48.470;9.226;2023-09-12T10:43:26;11.33;;;10.40;;
3589;SDS011;1809;48.470;9.226;2023-09-12T10:45:53;10.97;;;9.93;;
3589;SDS011;1809;48.470;9.226;2023-09-12T10:48:19;10.07;;;9.23;;
3589;SDS011;1809;48.470;9.226;2023-09-12T10:50:45;10.80;;;9.93;;
3589;SDS011;1809;48.470;9.226;2023-09-12T10:53:12;16.37;;;10.47;;
3589;SDS011;1809;48.470;9.226;2023-09-12T10:55:39;10.57;;;9.57;;
3589;SDS011;1809;48.470;9.226;2023-09-12T10:58:07;10.73;;;9.93;;
3589;SDS011;1809;48.470;9.226;2023-09-12T11:00:35;11.80;;;10.63;;
3589;SDS011;1809;48.470;9.226;2023-09-12T11:05:53;11.30;;;10.23;;
3589;SDS011;1809;48.470;9.226;2023-09-12T11:08:19;12.70;;;10.57;;
3589;SDS011;1809;48.470;9.226;2023-09-12T11:10:44;10.30;;;9.50;;
3589;SDS011;1809;48.470;9.226;2023-09-12T11:13:17;12.47;;;10.33;;
3589;SDS011;1809;48.470;9.226;2023-09-12T11:18:48;16.83;;;10.47;;
3589;SDS011;1809;48.470;9.226;2023-09-12T11:21:43;9.63;;;8.90;;
3589;SDS011;1809;48.470;9.226;2023-09-12T11:24:14;11.00;;;9.50;;
3589;SDS011;1809;48.470;9.226;2023-09-12T11:26:57;11.13;;;10.00;;
3589;SDS011;1809;48.470;9.226;2023-09-12T11:29:39;10.50;;;9.47;;
3589;SDS011;1809;48.470;9.226;2023-09-12T11:32:05;10.77;;;9.73;;
3589;SDS011;1809;48.470;9.226;2023-09-12T11:34:38;12.93;;;9.13;;
3589;SDS011;1809;48.470;9.226;2023-09-12T11:37:07;9.40;;;8.70;;
3589;SDS011;1809;48.470;9.226;2023-09-12T11:39:33;10.27;;;9.27;;
3589;SDS011;1809;48.470;9.226;2023-09-12T11:42:01;16.20;;;9.50;;
3589;SDS011;1809;48.470;9.226;2023-09-12T11:44:28;11.70;;;10.57;;
3589;SDS011;1809;48.470;9.226;2023-09-12T11:46:56;11.13;;;10.23;;
3589;SDS011;1809;48.470;9.226;2023-09-12T11:49:36;10.60;;;9.70;;
3589;SDS011;1809;48.470;9.226;2023-09-12T11:52:02;10.47;;;9.63;;
3589;SDS011;1809;48.470;9.226;2023-09-12T11:54:29;11.17;;;10.30;;
3589;SDS011;1809;48.470;9.226;2023-09-12T11:56:56;11.63;;;10.63;;
3589;SDS011;1809;48.470;9.226;2023-09-12T11:59:24;11.17;;;10.07;;
3589;SDS011;1809;48.470;9.226;2023-09-12T12:01:53;12.47;;;11.37;;
3589;SDS011;1809;48.470;9.226;2023-09-12T12:04:22;11.10;;;10.17;;
3589;SDS011;1809;48.470;9.226;2023-09-12T12:06:50;13.57;;;9.50;;
3589;SDS011;1809;48.470;9.226;2023-09-12T12:09:17;11.37;;;9.30;;
3589;SDS011;1809;48.470;9.226;2023-09-12T12:11:46;9.83;;;9.00;;
3589;SDS011;1809;48.470;9.226;2023-09-12T12:14:15;11.43;;;10.40;;
3589;SDS011;1809;48.470;9.226;2023-09-12T12:16:44;12.30;;;10.47;;
3589;SDS011;1809;48.470;9.226;2023-09-12T12:19:10;11.23;;;9.67;;
3589;SDS011;1809;48.470;9.226;2023-09-12T12:21:40;12.43;;;11.43;;
3589;SDS011;1809;48.470;9.226;2023-09-12T12:24:15;11.17;;;10.17;;
3589;SDS011;1809;48.470;9.226;2023-09-12T12:26:41;12.73;;;10.50;;
3589;SDS011;1809;48.470;9.226;2023-09-12T12:29:08;11.30;;;9.80;;
3589;SDS011;1809;48.470;9.226;2023-09-12T12:31:34;21.20;;;10.63;;
3589;SDS011;1809;48.470;9.226;2023-09-12T12:33:59;11.47;;;9.63;;
3589;SDS011;1809;48.470;9.226;2023-09-12T12:36:25;11.83;;;10.73;;
3589;SDS011;1809;48.470;9.226;2023-09-12T12:38:51;12.70;;;11.40;;
3589;SDS011;1809;48.470;9.226;2023-09-12T12:41:22;11.20;;;10.20;;
3589;SDS011;1809;48.470;9.226;2023-09-12T12:43:50;12.87;;;10.40;;
3589;SDS011;1809;48.470;9.226;2023-09-12T12:46:20;13.07;;;10.77;;
3589;SDS011;1809;48.470;9.226;2023-09-12T12:48:46;11.00;;;9.67;;
3589;SDS011;1809;48.470;9.226;2023-09-12T12:51:16;11.00;;;10.10;;
3589;SDS011;1809;48.470;9.226;2023-09-12T12:53:48;11.03;;;10.23;;
3589;SDS011;1809;48.470;9.226;2023-09-12T12:56:19;11.10;;;10.30;;
3589;SDS011;1809;48.470;9.226;2023-09-12T12:58:48;11.80;;;10.77;;
3589;SDS011;1809;48.470;9.226;2023-09-12T13:01:15;12.43;;;11.00;;
3589;SDS011;1809;48.470;9.226;2023-09-12T13:03:41;11.93;;;10.87;;
3589;SDS011;1809;48.470;9.226;2023-09-12T13:06:07;10.90;;;9.90;;
3589;SDS011;1809;48.470;9.226;2023-09-12T13:08:38;11.70;;;10.80;;
3589;SDS011;1809;48.470;9.226;2023-09-12T13:11:03;11.40;;;10.40;;
3589;SDS011;1809;48.470;9.226;2023-09-12T13:13:29;11.80;;;10.80;;
3589;SDS011;1809;48.470;9.226;2023-09-12T13:15:54;11.00;;;10.10;;
3589;SDS011;1809;48.470;9.226;2023-09-12T13:18:19;11.90;;;10.83;;
3589;SDS011;1809;48.470;9.226;2023-09-12T13:20:45;8.90;;;8.20;;
3589;SDS011;1809;48.470;9.226;2023-09-12T13:23:10;9.47;;;8.57;;
3589;SDS011;1809;48.470;9.226;2023-09-12T13:25:35;9.50;;;8.60;;
3589;SDS011;1809;48.470;9.226;2023-09-12T13:28:01;11.37;;;10.37;;
3589;SDS011;1809;48.470;9.226;2023-09-12T13:30:26;10.87;;;9.83;;
3589;SDS011;1809;48.470;9.226;2023-09-12T13:32:51;11.97;;;10.80;;
3589;SDS011;1809;48.470;9.226;2023-09-12T13:35:17;11.13;;;10.13;;
3589;SDS011;1809;48.470;9.226;2023-09-12T13:37:42;10.77;;;9.97;;
3589;SDS011;1809;48.470;9.226;2023-09-12T13:40:07;12.63;;;11.23;;
3589;SDS011;1809;48.470;9.226;2023-09-12T13:42:34;11.63;;;10.73;;
3589;SDS011;1809;48.470;9.226;2023-09-12T13:44:59;11.93;;;10.27;;
3589;SDS011;1809;48.470;9.226;2023-09-12T13:47:24;11.57;;;10.57;;
3589;SDS011;1809;48.470;9.226;2023-09-12T13:49:50;11.23;;;10.30;;
3589;SDS011;1809;48.470;9.226;2023-09-12T13:52:17;10.67;;;9.90;;
3589;SDS011;1809;48.470;9.226;2023-09-12T13:54:44;15.07;;;11.17;;
3589;SDS011;1809;48.470;9.226;2023-09-12T13:57:09;14.40;;;11.87;;
3589;SDS011;1809;48.470;9.226;2023-09-12T13:59:34;12.17;;;10.93;;
3589;SDS011;1809;48.470;9.226;2023-09-12T14:02:00;11.30;;;10.40;;
3589;SDS011;1809;48.470;9.226;2023-09-12T14:04:25;11.60;;;10.13;;
3589;SDS011;1809;48.470;9.226;2023-09-12T14:06:50;14.70;;;9.33;;
3589;SDS011;1809;48.470;9.226;2023-09-12T14:09:16;11.37;;;10.23;;
3589;SDS011;1809;48.470;9.226;2023-09-12T14:11:41;13.50;;;10.37;;
3589;SDS011;1809;48.470;9.226;2023-09-12T14:14:08;10.87;;;9.87;;
3589;SDS011;1809;48.470;9.226;2023-09-12T14:16:33;11.93;;;10.93;;
3589;SDS011;1809;48.470;9.226;2023-09-12T14:18:59;12.03;;;10.53;;
3589;SDS011;1809;48.470;9.226;2023-09-12T14:21:24;11.00;;;9.90;;
3589;SDS011;1809;48.470;9.226;2023-09-12T14:23:49;11.77;;;10.60;;
3589;SDS011;1809;48.470;9.226;2023-09-12T14:26:15;10.30;;;9.50;;
3589;SDS011;1809;48.470;9.226;2023-09-12T14:28:40;10.97;;;10.10;;
3589;SDS011;1809;48.470;9.226;2023-09-12T14:31:05;11.63;;;10.60;;
3589;SDS011;1809;48.470;9.226;2023-09-12T14:33:38;13.13;;;11.73;;
3589;SDS011;1809;48.470;9.226;2023-09-12T14:36:03;14.93;;;12.10;;
3589;SDS011;1809;48.470;9.226;2023-09-12T14:38:29;13.83;;;12.00;;
3589;SDS011;1809;48.470;9.226;2023-09-12T14:40:54;13.43;;;12.23;;
3589;SDS011;1809;48.470;9.226;2023-09-12T14:43:20;14.13;;;12.60;;
3589;SDS011;1809;48.470;9.226;2023-09-12T14:45:46;14.60;;;12.27;;
3589;SDS011;1809;48.470;9.226;2023-09-12T14:48:11;15.37;;;13.97;;
3589;SDS011;1809;48.470;9.226;2023-09-12T14:50:37;15.23;;;13.63;;
3589;SDS011;1809;48.470;9.226;2023-09-12T14:53:02;16.90;;;12.80;;
3589;SDS011;1809;48.470;9.226;2023-09-12T14:55:28;18.13;;;12.80;;
3589;SDS011;1809;48.470;9.226;2023-09-12T14:57:53;14.27;;;12.90;;
3589;SDS011;1809;48.470;9.226;2023-09-12T15:00:19;17.03;;;13.70;;